createdAt,value
2022-09-05T05:31:40.973Z,16.60
2022-09-05T05:34:47.601Z,17.10
2022-09-05T05:37:59.468Z,18.10
2022-09-05T05:41:37.720Z,19.20
2022-09-05T05:44:39.554Z,19.80
2022-09-05T05:47:47.096Z,20.10
2022-09-05T05:51:15.056Z,20.40
2022-09-05T05:54:42.556Z,20.10
2022-09-05T05:58:14.340Z,19.80
2022-09-05T06:01:43.398Z,19.90
2022-09-05T06:05:25.530Z,20.20
2022-09-05T06:13:15.998Z,20.60
2022-09-05T06:50:24.192Z,24.00
2022-09-05T06:53:46.792Z,25.80
2022-09-05T06:57:30.636Z,25.10
2022-09-05T07:00:55.320Z,23.30
2022-09-05T07:04:33.309Z,22.50
2022-09-05T07:07:46.684Z,21.80
2022-09-05T07:11:15.496Z,24.40
2022-09-05T07:14:24.498Z,25.70
2022-09-05T07:18:09.209Z,25.40
2022-09-05T07:21:26.130Z,25.30
2022-09-05T07:24:53.224Z,24.50
2022-09-05T07:28:26.337Z,23.90
2022-09-05T07:31:37.962Z,23.70
2022-09-05T07:34:40.068Z,23.30
2022-09-05T07:37:45.101Z,23.50
2022-09-05T07:40:55.301Z,23.20
2022-09-05T07:44:05.079Z,22.60
2022-09-05T07:47:16.911Z,22.40
2022-09-05T07:56:36.334Z,22.90
2022-09-05T07:56:51.884Z,23.40
2022-09-05T08:00:31.424Z,25.90
2022-09-05T08:03:33.988Z,28.80
2022-09-05T08:07:48.120Z,29.00
2022-09-05T08:10:09.702Z,29.10
2022-09-05T08:13:24.744Z,27.80
2022-09-05T08:16:39.292Z,29.10
2022-09-05T08:20:08.611Z,29.80
2022-09-05T08:23:38.995Z,30.00
2022-09-05T08:26:50.783Z,31.30
2022-09-05T08:30:26.771Z,31.80
2022-09-05T08:33:32.200Z,33.00
2022-09-05T08:36:41.312Z,33.80
2022-09-05T08:39:44.505Z,33.10
2022-09-05T08:43:51.748Z,34.00
2022-09-05T08:46:42.372Z,34.90
2022-09-05T08:50:03.516Z,34.40
2022-09-05T08:53:46.348Z,36.30
2022-09-05T08:57:28.750Z,35.70
2022-09-05T09:00:41.604Z,35.40
2022-09-05T09:04:17.068Z,36.00
2022-09-05T09:07:50.944Z,35.00
2022-09-05T09:11:05.044Z,33.50
2022-09-05T09:14:32.767Z,34.00
2022-09-05T09:17:43.517Z,34.10
2022-09-05T09:21:22.791Z,33.60
2022-09-05T09:24:38.419Z,34.00
2022-09-05T09:28:50.214Z,34.30
2022-09-05T09:31:46.616Z,35.00
2022-09-05T09:35:26.329Z,34.10
2022-09-05T09:38:55.286Z,34.60
2022-09-05T09:42:33.110Z,36.40
2022-09-05T09:46:17.004Z,36.10
2022-09-05T09:49:58.660Z,35.70
2022-09-05T09:53:23.567Z,35.70
2022-09-05T09:56:34.459Z,33.70
2022-09-05T10:00:06.684Z,34.80
2022-09-05T10:10:32.906Z,35.10
2022-09-05T10:10:54.004Z,35.70
2022-09-05T10:11:53.665Z,35.90
2022-09-05T10:15:38.107Z,36.50
2022-09-05T10:19:14.740Z,36.50
2022-09-05T10:22:46.833Z,35.50
2022-09-05T10:26:17.671Z,34.70
2022-09-05T10:29:47.591Z,35.10
2022-09-05T10:35:08.969Z,34.90
2022-09-05T10:36:59.045Z,34.90
2022-09-05T10:40:07.328Z,34.30
2022-09-05T10:43:23.884Z,34.00
2022-09-05T10:46:51.750Z,34.40
2022-09-05T10:50:23.215Z,34.10
2022-09-05T10:53:52.818Z,34.50
2022-09-05T10:57:34.551Z,32.70
2022-09-05T11:02:21.267Z,32.60
2022-09-05T11:04:49.628Z,33.00
2022-09-05T11:08:25.288Z,33.10
2022-09-05T11:11:34.328Z,33.40
2022-09-05T11:14:52.358Z,32.90
2022-09-05T11:18:03.838Z,33.70
2022-09-05T11:21:16.503Z,34.70
2022-09-05T11:24:58.060Z,33.70
2022-09-05T11:28:25.899Z,33.90
2022-09-05T11:32:43.538Z,34.10
2022-09-05T11:40:02.803Z,32.80
2022-09-05T11:40:06.718Z,32.40
2022-09-05T11:43:42.275Z,32.60
2022-09-05T11:47:29.906Z,31.70
2022-09-05T11:51:12.081Z,30.90
2022-09-05T11:54:30.618Z,29.80
2022-09-05T11:57:56.858Z,29.70
2022-09-05T12:05:49.884Z,29.80
2022-09-05T12:08:45.559Z,29.80
2022-09-05T12:12:39.309Z,29.70
2022-09-05T12:15:53.435Z,29.80
2022-09-05T12:19:48.622Z,29.90
2022-09-05T12:23:20.932Z,29.70
2022-09-05T12:27:42.635Z,29.80
2022-09-05T12:30:08.265Z,29.70
2022-09-05T12:36:02.691Z,29.20
2022-09-05T12:41:37.137Z,29.90
2022-09-05T12:41:42.465Z,29.50
2022-09-05T12:41:43.318Z,30.00
2022-09-05T12:44:40.157Z,29.20
2022-09-05T12:47:16.636Z,29.50
2022-09-05T12:50:31.610Z,29.20
2022-09-05T12:53:58.902Z,29.20
2022-09-05T13:01:01.545Z,29.90
2022-09-05T13:03:09.385Z,29.70
2022-09-05T13:04:30.857Z,29.60
2022-09-05T13:07:40.947Z,29.70
2022-09-05T13:14:47.604Z,29.10
2022-09-05T13:15:01.251Z,29.30
2022-09-05T13:18:10.170Z,29.50
2022-09-05T13:21:28.606Z,29.50
2022-09-05T13:24:38.531Z,29.40
2022-09-05T13:27:56.538Z,29.30
2022-09-05T13:37:55.687Z,29.30
2022-09-05T13:38:29.043Z,29.10
2022-09-05T13:41:44.721Z,29.40
2022-09-05T13:44:51.487Z,29.20
2022-09-05T13:48:15.261Z,28.90
2022-09-05T13:51:40.745Z,28.90
2022-09-05T13:54:51.685Z,29.00
2022-09-05T13:58:18.127Z,29.10
2022-09-05T14:02:07.747Z,29.10
2022-09-05T14:05:39.930Z,29.40
2022-09-05T14:12:49.746Z,29.10
2022-09-05T14:15:59.001Z,29.00
2022-09-05T14:19:23.413Z,29.00
2022-09-05T14:23:04.032Z,29.10
2022-09-05T14:26:15.534Z,29.00
2022-09-05T14:29:25.055Z,29.00
2022-09-05T14:37:36.128Z,29.10
2022-09-05T14:37:45.593Z,29.20
2022-09-05T14:40:32.795Z,29.00
2022-09-05T14:44:05.476Z,28.90
2022-09-05T14:47:47.434Z,28.60
2022-09-05T14:51:29.981Z,28.30
2022-09-05T15:02:44.410Z,28.40
2022-09-05T15:02:51.033Z,28.40
2022-09-05T15:05:11.549Z,28.50
2022-09-05T15:09:42.159Z,28.50
2022-09-05T15:12:15.585Z,28.50
2022-09-05T15:15:06.617Z,28.40
2022-09-05T15:18:19.514Z,28.40
2022-09-05T15:21:35.349Z,28.10
2022-09-05T15:24:37.336Z,28.10
2022-09-05T15:27:39.039Z,28.20
2022-09-05T15:30:56.409Z,28.20
2022-09-05T15:34:20.354Z,27.90
2022-09-05T15:37:42.628Z,27.90
2022-09-05T15:40:44.375Z,28.00
2022-09-05T15:43:51.409Z,28.10
2022-09-05T15:47:03.776Z,28.10
2022-09-05T15:50:22.133Z,28.00
2022-09-05T15:53:34.325Z,27.90
2022-09-05T15:56:37.006Z,27.70
2022-09-05T15:59:48.042Z,27.50
